createdAt,value
2023-06-30T00:11:48.999Z,45.5
2023-06-30T00:26:59.121Z,44
2023-06-30T00:42:08.654Z,43.8
2023-06-30T00:57:18.349Z,44.7
2023-06-30T01:12:27.830Z,50.2
2023-06-30T01:27:39.272Z,47.2
2023-06-30T01:42:49.996Z,46.1
2023-06-30T01:58:00.003Z,37.1
2023-06-30T02:13:10.567Z,40.6
2023-06-30T02:28:20.940Z,27.7
2023-06-30T02:43:30.696Z,24.5
2023-06-30T02:58:40.345Z,21
2023-06-30T03:13:50.248Z,17.6
2023-06-30T03:28:58.961Z,11.9
2023-06-30T03:44:08.601Z,10.4
2023-06-30T03:59:17.934Z,10.3
2023-06-30T04:14:27.254Z,15
2023-06-30T04:29:37.571Z,3.7
2023-06-30T04:44:47.156Z,11
2023-06-30T04:59:57.156Z,5.6
2023-06-30T05:15:07.039Z,8.5
2023-06-30T05:30:16.770Z,6.8
2023-06-30T05:45:26.300Z,8.7
2023-06-30T06:00:38.926Z,8.4
2023-06-30T06:15:48.290Z,12.7
2023-06-30T06:30:58.065Z,10.4
2023-06-30T06:46:07.818Z,15.3
2023-06-30T07:01:18.132Z,17.9
2023-06-30T07:16:28.224Z,18.9
2023-06-30T07:31:39.405Z,20.4
2023-06-30T07:47:04.199Z,17.1
2023-06-30T08:02:16.493Z,13.6
2023-06-30T08:17:58.716Z,14.7
2023-06-30T08:33:10.218Z,13.7
2023-06-30T08:48:20.332Z,14.6
2023-06-30T09:03:29.687Z,14.7
2023-06-30T09:18:40.487Z,23
2023-06-30T09:33:50.294Z,11.2
2023-06-30T09:49:00.196Z,15.4
2023-06-30T10:04:09.826Z,10.6
2023-06-30T10:19:20.282Z,10.1
2023-06-30T10:34:29.708Z,10.2
2023-06-30T10:49:39.150Z,7.9
2023-06-30T11:04:49.444Z,9.7
2023-06-30T11:19:59.595Z,6.1
2023-06-30T11:35:09.590Z,4.1
2023-06-30T11:50:21.825Z,7.7
2023-06-30T12:05:31.875Z,6.2
2023-06-30T12:20:42.003Z,6.7
2023-06-30T12:35:51.459Z,4.7
2023-06-30T12:51:02.636Z,3
2023-06-30T13:06:13.249Z,3.5
2023-06-30T13:21:23.728Z,3.5
2023-06-30T13:36:34.313Z,2.4
2023-06-30T13:51:44.478Z,4
2023-06-30T14:07:15.989Z,2.3
2023-06-30T14:22:32.180Z,2.4
2023-06-30T14:40:42.728Z,3.8
2023-06-30T14:55:55.662Z,2
2023-06-30T15:11:04.633Z,4.4
2023-06-30T15:26:13.990Z,2.7
2023-06-30T15:41:23.944Z,2.3
2023-06-30T15:56:33.537Z,2
2023-06-30T16:11:43.378Z,2.1
2023-06-30T16:26:52.487Z,3.4
2023-06-30T16:42:01.605Z,2.8
2023-06-30T16:57:10.225Z,3.1
2023-06-30T17:12:19.993Z,3.8
2023-06-30T17:27:29.588Z,4.5
2023-06-30T17:42:38.981Z,4.5
2023-06-30T17:57:49.108Z,4.4
2023-06-30T18:12:58.913Z,3.1
2023-06-30T18:28:08.346Z,5.9
2023-06-30T18:43:18.082Z,3.4
2023-06-30T18:58:27.647Z,3.8
2023-06-30T19:13:36.825Z,5.4
2023-06-30T19:28:46.517Z,4.2
2023-06-30T19:43:55.930Z,2.3
2023-06-30T19:59:05.911Z,7.1
2023-06-30T20:14:15.471Z,5.3
2023-06-30T20:29:24.924Z,2.4
2023-06-30T20:44:35.836Z,5.3
2023-06-30T20:59:47.537Z,5
2023-06-30T21:14:57.168Z,4.1
2023-06-30T21:30:07.020Z,4.5
2023-06-30T21:45:16.811Z,2.9
2023-06-30T22:00:26.329Z,5.5
2023-06-30T22:15:35.957Z,5.1
2023-06-30T22:30:46.353Z,4.9
2023-06-30T22:45:56.539Z,4.5
2023-06-30T23:01:06.867Z,5.1
2023-06-30T23:16:16.612Z,4
2023-06-30T23:31:26.446Z,4.4
2023-06-30T23:46:36.655Z,4.3
